Eems Trader — V2DE3 — position and weather

sailwx.info

Track history (hours):
 
Tides and Currents Weather Stations Pressure Air Temp Water Temp Dewpoint Dewpoint Depression Visibility Wind Speed Wind Dir Waves Ship Positions

Eems Trader

Last reported at 2015-Aug-29 14:33 UTC. Time now 2015-Aug-29 14:45 UTC.
Position N 40°17' E 001°49'.

Length 89 m; draft 3.9 m.

Type: Ship (hazmat cat A). MMSI: 305182000.

Date/timePositionNaut miles runAvg speedWind from/ knotsBaromVisibWave heightAir tempDewpointWater temp
2015-Aug-29 14:33N 40°17' E 001°49'9 8.5
2015-Aug-29 13:33N 40°24' E 001°56'9 8.6
2015-Aug-29 12:33N 40°31' E 002°03'9 8.7
2015-Aug-29 11:33N 40°38' E 002°09'8 8.4
2015-Aug-29 10:34N 40°44' E 002°16'9 8.5
2015-Aug-29 09:33N 40°51' E 002°22'9 8.8
2015-Aug-29 08:34N 40°58' E 002°29'9 9.0
2015-Aug-29 07:33N 41°06' E 002°36'9 8.6
2015-Aug-29 06:34N 41°13' E 002°43'9 8.6
2015-Aug-29 05:33N 41°20' E 002°50'9 9.2
2015-Aug-29 04:33N 41°27' E 002°57'9 9.0
2015-Aug-29 03:33N 41°34' E 003°04'8 8.6
2015-Aug-29 02:34N 41°41' E 003°11'9 8.6
2015-Aug-29 01:33N 41°48' E 003°18'10 9.1
2015-Aug-29 00:30N 41°56' E 003°26'9 9.2
2015-Aug-28 23:33N 42°04' E 003°31'10 9.2
2015-Aug-28 22:30N 42°13' E 003°32'29 9.0
2015-Aug-28 19:18N 42°42' E 003°37'25 8.3
2015-Aug-28 16:17N 43°07' E 003°42'6 8.4
2015-Aug-28 15:31N 43°13' E 003°43'125 2.5
2015-Aug-26 14:23N 41°15' E 002°47'10 9.4
2015-Aug-26 13:19N 41°07' E 002°39'7 9.2
2015-Aug-26 12:32N 41°01' E 002°33'9 9.3
2015-Aug-26 11:33N 40°54' E 002°27'9 8.9
2015-Aug-26 10:33N 40°46' E 002°20'9 8.8
2015-Aug-26 09:33N 40°39' E 002°13'9 9.1
2015-Aug-26 08:33N 40°32' E 002°06'9 9.3
2015-Aug-26 07:33N 40°24' E 001°59'9 9.3
2015-Aug-26 06:33N 40°17' E 001°52'9 9.3
2015-Aug-26 05:33N 40°09' E 001°45'9 9.3
2015-Aug-26 04:33N 40°01' E 001°38'9 9.0
2015-Aug-26 03:33N 39°54' E 001°31'9 8.5
2015-Aug-26 02:33N 39°47' E 001°25'88 8.6
2015-Aug-25 16:18N 38°34' E 000°21'10 8.8
2015-Aug-25 15:11N 38°26' E 000°14'50 8.9
2015-Aug-25 09:33N 37°44' W 000°21'9 9.1
2015-Aug-25 08:33N 37°37' W 000°28'9 8.7
2015-Aug-25 07:28N 37°30' W 000°36'8 8.6
2015-Aug-25 06:33N 37°24' W 000°43'9 8.7
2015-Aug-25 05:33N 37°18' W 000°51'10 9.0
2015-Aug-25 04:24N 37°12' W 001°01'43 8.5
2015-Aug-24 23:23N 36°44' W 001°42'  
2015-Aug-21 08:24N 36°09' W 007°19'82 8.0
2015-Aug-20 22:08N 36°31' W 008°58'28 7.9
2015-Aug-20 18:32N 36°45' W 009°28'32 8.1
2015-Aug-20 14:32N 37°16' W 009°40'8 8.5
2015-Aug-20 13:33N 37°24' W 009°43'9 8.7
2015-Aug-20 12:33N 37°32' W 009°45'8 8.2
2015-Aug-20 11:33N 37°40' W 009°47'8 7.9
2015-Aug-20 10:33N 37°48' W 009°49'8 7.6
2015-Aug-20 09:33N 37°56' W 009°51'8 8.1
2015-Aug-20 08:32N 38°04' W 009°54'8 7.8
2015-Aug-20 07:33N 38°11' W 009°56'8 7.9
2015-Aug-20 06:33N 38°19' W 009°58'8 8.3
2015-Aug-20 05:33N 38°27' W 010°01'9 8.7
2015-Aug-20 04:33N 38°35' W 010°03'8 8.2
2015-Aug-20 03:33N 38°43' W 010°05'8 7.9
2015-Aug-20 02:33N 38°51' W 010°05'8 7.7
2015-Aug-20 01:33N 38°59' W 010°06'8 8.3
2015-Aug-20 00:33N 39°07' W 010°06'35 7.9
2015-Aug-19 20:05N 39°35' W 009°38'21 8.1
2015-Aug-19 17:31N 39°50' W 009°19'8 7.9
2015-Aug-19 16:33N 39°55' W 009°12'8 7.8
2015-Aug-19 15:30N 40°01' W 009°04'  
Track history (hours):
 
Tides and Currents Weather Stations Pressure Air Temp Water Temp Dewpoint Dewpoint Depression Visibility Wind Speed Wind Dir Waves Ship Positions

Eems Trader

Last reported at 2015-Aug-29 14:33 UTC. Time now 2015-Aug-29 14:45 UTC.
Position N 40°17' E 001°49'.

Length 89 m; draft 3.9 m.

Type: Ship (hazmat cat A). MMSI: 305182000.

Date/timePositionNaut miles runAvg speedWind from/ knotsBaromVisibWave heightAir tempDewpointWater temp
2015-Aug-29 14:33N 40°17' E 001°49'9 8.5
2015-Aug-29 13:33N 40°24' E 001°56'9 8.6
2015-Aug-29 12:33N 40°31' E 002°03'9 8.7
2015-Aug-29 11:33N 40°38' E 002°09'8 8.4
2015-Aug-29 10:34N 40°44' E 002°16'9 8.5
2015-Aug-29 09:33N 40°51' E 002°22'9 8.8
2015-Aug-29 08:34N 40°58' E 002°29'9 9.0
2015-Aug-29 07:33N 41°06' E 002°36'9 8.6
2015-Aug-29 06:34N 41°13' E 002°43'9 8.6
2015-Aug-29 05:33N 41°20' E 002°50'9 9.2
2015-Aug-29 04:33N 41°27' E 002°57'9 9.0
2015-Aug-29 03:33N 41°34' E 003°04'8 8.6
2015-Aug-29 02:34N 41°41' E 003°11'9 8.6
2015-Aug-29 01:33N 41°48' E 003°18'10 9.1
2015-Aug-29 00:30N 41°56' E 003°26'9 9.2
2015-Aug-28 23:33N 42°04' E 003°31'10 9.2
2015-Aug-28 22:30N 42°13' E 003°32'29 9.0
2015-Aug-28 19:18N 42°42' E 003°37'25 8.3
2015-Aug-28 16:17N 43°07' E 003°42'6 8.4
2015-Aug-28 15:31N 43°13' E 003°43'125 2.5
2015-Aug-26 14:23N 41°15' E 002°47'10 9.4
2015-Aug-26 13:19N 41°07' E 002°39'7 9.2
2015-Aug-26 12:32N 41°01' E 002°33'9 9.3
2015-Aug-26 11:33N 40°54' E 002°27'9 8.9
2015-Aug-26 10:33N 40°46' E 002°20'9 8.8
2015-Aug-26 09:33N 40°39' E 002°13'9 9.1
2015-Aug-26 08:33N 40°32' E 002°06'9 9.3
2015-Aug-26 07:33N 40°24' E 001°59'9 9.3
2015-Aug-26 06:33N 40°17' E 001°52'9 9.3
2015-Aug-26 05:33N 40°09' E 001°45'9 9.3
2015-Aug-26 04:33N 40°01' E 001°38'9 9.0
2015-Aug-26 03:33N 39°54' E 001°31'9 8.5
2015-Aug-26 02:33N 39°47' E 001°25'88 8.6
2015-Aug-25 16:18N 38°34' E 000°21'10 8.8
2015-Aug-25 15:11N 38°26' E 000°14'50 8.9
2015-Aug-25 09:33N 37°44' W 000°21'9 9.1
2015-Aug-25 08:33N 37°37' W 000°28'9 8.7
2015-Aug-25 07:28N 37°30' W 000°36'8 8.6
2015-Aug-25 06:33N 37°24' W 000°43'9 8.7
2015-Aug-25 05:33N 37°18' W 000°51'10 9.0
2015-Aug-25 04:24N 37°12' W 001°01'43 8.5
2015-Aug-24 23:23N 36°44' W 001°42'  
2015-Aug-21 08:24N 36°09' W 007°19'82 8.0
2015-Aug-20 22:08N 36°31' W 008°58'28 7.9
2015-Aug-20 18:32N 36°45' W 009°28'32 8.1
2015-Aug-20 14:32N 37°16' W 009°40'8 8.5
2015-Aug-20 13:33N 37°24' W 009°43'9 8.7
2015-Aug-20 12:33N 37°32' W 009°45'8 8.2
2015-Aug-20 11:33N 37°40' W 009°47'8 7.9
2015-Aug-20 10:33N 37°48' W 009°49'8 7.6
2015-Aug-20 09:33N 37°56' W 009°51'8 8.1
2015-Aug-20 08:32N 38°04' W 009°54'8 7.8
2015-Aug-20 07:33N 38°11' W 009°56'8 7.9
2015-Aug-20 06:33N 38°19' W 009°58'8 8.3
2015-Aug-20 05:33N 38°27' W 010°01'9 8.7
2015-Aug-20 04:33N 38°35' W 010°03'8 8.2
2015-Aug-20 03:33N 38°43' W 010°05'8 7.9
2015-Aug-20 02:33N 38°51' W 010°05'8 7.7
2015-Aug-20 01:33N 38°59' W 010°06'8 8.3
2015-Aug-20 00:33N 39°07' W 010°06'35 7.9
2015-Aug-19 20:05N 39°35' W 009°38'21 8.1
2015-Aug-19 17:31N 39°50' W 009°19'8 7.9
2015-Aug-19 16:33N 39°55' W 009°12'8 7.8
2015-Aug-19 15:30N 40°01' W 009°04'  

Dump ship's entire track history